An Run Da 2 — BHNX — position and weather

sailwx.info

Track history (hours):
 
Tides and Currents Weather Stations Pressure Air Temp Water Temp Dewpoint Dewpoint Depression Visibility Wind Speed Wind Dir Waves Ship Positions

An Run Da 2

Last reported at 2016-Aug-20 06:21 UTC. Time now 2016-Aug-25 02:40 UTC.
Position N 31°45' E 121°05'.

Length 147 m; draft 8.4 m.

Type: Cargo ship. MMSI: 413360230.

Date/timePositionNaut miles runAvg speedWind from/ knotsBaromVisibWave heightAir tempDewpointWater temp
2016-Aug-20 06:21N 31°45' E 121°05'911.3
2016-Aug-20 05:33N 31°39' E 121°14'1111.4
2016-Aug-20 04:33N 31°31' E 121°23'1211.9
2016-Aug-20 03:33N 31°24' E 121°34'1411.0
2016-Aug-20 02:17N 31°17' E 121°48'329 7.9
2016-Aug-18 08:31N 36°44' E 122°44'9 9.3
2016-Aug-18 07:33N 36°53' E 122°44'10 9.8
2016-Aug-18 06:33N 37°02' E 122°45'1010.5
2016-Aug-18 05:33N 37°13' E 122°46'1611.2
2016-Aug-18 04:09N 37°28' E 122°43'2010.8
2016-Aug-18 02:17N 37°37' E 122°21'710.0
2016-Aug-18 01:33N 37°40' E 122°12'10 9.8
2016-Aug-18 00:33N 37°43' E 122°00'10 9.9
2016-Aug-17 23:33N 37°46' E 121°48'1010.1
2016-Aug-17 22:33N 37°49' E 121°36'1110.5
2016-Aug-17 21:33N 37°53' E 121°24'1110.6
2016-Aug-17 20:32N 37°55' E 121°10'1110.8
2016-Aug-17 19:31N 37°58' E 120°57'2310.6
2016-Aug-17 17:21N 38°03' E 120°28'8 9.8
2016-Aug-17 16:33N 38°06' E 120°20'91 3.3
2016-Aug-16 13:28N 39°13' E 119°01'0 0.0
2016-Aug-16 12:06N 39°13' E 119°01'1 1.4
2016-Aug-16 11:33N 39°12' E 119°01'4 4.1
2016-Aug-16 10:33N 39°10' E 119°05'0 0.0
2016-Aug-16 09:25N 39°10' E 119°05'0 0.0
2016-Aug-15 14:32N 39°10' E 119°05'0 0.0
2016-Aug-13 20:27N 39°10' E 119°05'  
2016-Aug-11 11:27N 38°10' E 120°14'1112.0
2016-Aug-11 10:33N 38°05' E 120°26'1212.2
2016-Aug-11 09:33N 38°02' E 120°41'1211.9
2016-Aug-11 08:33N 37°60' E 120°56'1211.6
2016-Aug-11 07:33N 37°57' E 121°10'9710.2
2016-Aug-10 22:05N 37°04' E 122°52'610.7
2016-Aug-10 21:33N 36°58' E 122°52'1110.6
2016-Aug-10 20:33N 36°47' E 122°52'  
Track history (hours):
 
Tides and Currents Weather Stations Pressure Air Temp Water Temp Dewpoint Dewpoint Depression Visibility Wind Speed Wind Dir Waves Ship Positions

An Run Da 2

Last reported at 2016-Aug-20 06:21 UTC. Time now 2016-Aug-25 02:40 UTC.
Position N 31°45' E 121°05'.

Length 147 m; draft 8.4 m.

Type: Cargo ship. MMSI: 413360230.

Date/timePositionNaut miles runAvg speedWind from/ knotsBaromVisibWave heightAir tempDewpointWater temp
2016-Aug-20 06:21N 31°45' E 121°05'911.3
2016-Aug-20 05:33N 31°39' E 121°14'1111.4
2016-Aug-20 04:33N 31°31' E 121°23'1211.9
2016-Aug-20 03:33N 31°24' E 121°34'1411.0
2016-Aug-20 02:17N 31°17' E 121°48'329 7.9
2016-Aug-18 08:31N 36°44' E 122°44'9 9.3
2016-Aug-18 07:33N 36°53' E 122°44'10 9.8
2016-Aug-18 06:33N 37°02' E 122°45'1010.5
2016-Aug-18 05:33N 37°13' E 122°46'1611.2
2016-Aug-18 04:09N 37°28' E 122°43'2010.8
2016-Aug-18 02:17N 37°37' E 122°21'710.0
2016-Aug-18 01:33N 37°40' E 122°12'10 9.8
2016-Aug-18 00:33N 37°43' E 122°00'10 9.9
2016-Aug-17 23:33N 37°46' E 121°48'1010.1
2016-Aug-17 22:33N 37°49' E 121°36'1110.5
2016-Aug-17 21:33N 37°53' E 121°24'1110.6
2016-Aug-17 20:32N 37°55' E 121°10'1110.8
2016-Aug-17 19:31N 37°58' E 120°57'2310.6
2016-Aug-17 17:21N 38°03' E 120°28'8 9.8
2016-Aug-17 16:33N 38°06' E 120°20'91 3.3
2016-Aug-16 13:28N 39°13' E 119°01'0 0.0
2016-Aug-16 12:06N 39°13' E 119°01'1 1.4
2016-Aug-16 11:33N 39°12' E 119°01'4 4.1
2016-Aug-16 10:33N 39°10' E 119°05'0 0.0
2016-Aug-16 09:25N 39°10' E 119°05'0 0.0
2016-Aug-15 14:32N 39°10' E 119°05'0 0.0
2016-Aug-13 20:27N 39°10' E 119°05'  
2016-Aug-11 11:27N 38°10' E 120°14'1112.0
2016-Aug-11 10:33N 38°05' E 120°26'1212.2
2016-Aug-11 09:33N 38°02' E 120°41'1211.9
2016-Aug-11 08:33N 37°60' E 120°56'1211.6
2016-Aug-11 07:33N 37°57' E 121°10'9710.2
2016-Aug-10 22:05N 37°04' E 122°52'610.7
2016-Aug-10 21:33N 36°58' E 122°52'1110.6
2016-Aug-10 20:33N 36°47' E 122°52'  

Dump ship's entire track history